Wetterdaten: aktuell Montag, 28.09.2020 11:50
Datum Zeit Temp. A. Feuchte A. Luftdruck Regen Wind Taupunkt Windchill Windben
28.09.2020 11:50 11,2 C 80 % 1013,2 hPa 0,0 l/m 0,0 km/h (0 Bft) 7,9 C 11,2 C 0,0 km/h (0 Bft)
28.09.2020 11:45 10,9 C 80 % 1013,2 hPa 0,0 l/m 0,6 km/h (0 Bft) 7,6 C 10,9 C 3,2 km/h (1 Bft)
28.09.2020 11:40 10,6 C 83 % 1013,2 hPa 0,0 l/m 0,2 km/h (0 Bft) 7,8 C 10,6 C 3,2 km/h (1 Bft)
28.09.2020 11:35 10,3 C 84 % 1013,3 hPa 0,0 l/m 0,8 km/h (0 Bft) 7,7 C 10,3 C 3,2 km/h (1 Bft)
28.09.2020 11:30 9,9 C 83 % 1013,4 hPa 0,0 l/m 1,8 km/h (1 Bft) 7,2 C 9,9 C 4,8 km/h (1 Bft)
28.09.2020 11:25 9,8 C 84 % 1013,4 hPa 0,0 l/m 0,7 km/h (0 Bft) 7,2 C 9,8 C 3,2 km/h (1 Bft)
28.09.2020 11:20 9,6 C 84 % 1013,4 hPa 0,0 l/m 0,6 km/h (0 Bft) 7,0 C 9,6 C 4,8 km/h (1 Bft)
28.09.2020 11:15 9,3 C 85 % 1013,3 hPa 0,0 l/m 0,0 km/h (0 Bft) 6,9 C 9,3 C 0,0 km/h (0 Bft)
28.09.2020 11:10 9,0 C 85 % 1013,4 hPa 0,0 l/m 1,1 km/h (1 Bft) 6,6 C 9,0 C 4,8 km/h (1 Bft)
28.09.2020 11:05 8,8 C 85 % 1013,4 hPa 0,0 l/m 0,7 km/h (0 Bft) 6,4 C 8,8 C 4,8 km/h (1 Bft)
28.09.2020 11:00 8,6 C 85 % 1013,4 hPa 0,0 l/m 0,5 km/h (0 Bft) 6,2 C 8,6 C 3,2 km/h (1 Bft)
28.09.2020 10:55 8,4 C 86 % 1013,4 hPa 0,0 l/m 2,5 km/h (1 Bft) 6,2 C 8,4 C 4,8 km/h (1 Bft)
28.09.2020 10:50 8,2 C 86 % 1013,2 hPa 0,0 l/m 0,6 km/h (0 Bft) 6,0 C 8,2 C 3,2 km/h (1 Bft)
28.09.2020 10:45 8,1 C 85 % 1013,1 hPa 0,0 l/m 0,1 km/h (0 Bft) 5,7 C 8,1 C 1,6 km/h (1 Bft)
28.09.2020 10:40 8,0 C 85 % 1013,1 hPa 0,0 l/m 0,3 km/h (0 Bft) 5,6 C 8,0 C 1,6 km/h (1 Bft)
28.09.2020 10:35 7,8 C 87 % 1013,2 hPa 0,0 l/m 1,7 km/h (1 Bft) 5,8 C 7,8 C 4,8 km/h (1 Bft)
28.09.2020 10:30 7,5 C 88 % 1013,2 hPa 0,0 l/m 0,6 km/h (0 Bft) 5,6 C 7,5 C 3,2 km/h (1 Bft)
28.09.2020 10:25 7,3 C 88 % 1013,0 hPa 0,0 l/m 1,2 km/h (1 Bft) 5,4 C 7,3 C 3,2 km/h (1 Bft)
28.09.2020 10:20 7,1 C 88 % 1013,1 hPa 0,0 l/m 1,6 km/h (1 Bft) 5,2 C 7,1 C 3,2 km/h (1 Bft)
28.09.2020 10:15 6,9 C 88 % 1013,2 hPa 0,0 l/m 2,7 km/h (1 Bft) 5,1 C 6,9 C 4,8 km/h (1 Bft)
28.09.2020 10:10 6,7 C 88 % 1013,3 hPa 0,0 l/m 2,7 km/h (1 Bft) 4,9 C 6,7 C 4,8 km/h (1 Bft)
_ Min-Zeit 07:25 11:45 00:20 - 00:10 07:35 07:25 00:15
Minimum _ 2,2 C 80 % 1010,3 hPa - 0,0 km/h (0 Bft) 0,1 C 2,2 C 0,0 km/h (0 Bft)
_ Max-Zeit 11:50 08:35 10:55 00:00 08:55 11:50 11:50 08:05
Maximum _ 11,2 C 88 % 1013,4 hPa 0,0 l/m 3,8 km/h
W-SW (1 Bft)
7,9 C 11,2 C 8,0 km/h
SW (2 Bft)
Durchschnitt _ 4,4 C 86 % 1011,8 hPa #0,0 l/m 1,2 km/h (1 Bft) 2,3 C 4,4 C 2,9 km/h (1 Bft)